sensor_id;sensor_type;location;lat;lon;timestamp;P1;durP1;ratioP1;P2;durP2;ratioP2
59585;SDS011;45408;52.686;7.310;2023-08-08T00:01:33;4.28;;;2.60;;
59585;SDS011;45408;52.686;7.310;2023-08-08T00:04:00;5.13;;;2.38;;
59585;SDS011;45408;52.686;7.310;2023-08-08T00:06:26;3.53;;;2.08;;
59585;SDS011;45408;52.686;7.310;2023-08-08T00:08:52;3.70;;;2.03;;
59585;SDS011;45408;52.686;7.310;2023-08-08T00:11:18;3.67;;;2.40;;
59585;SDS011;45408;52.686;7.310;2023-08-08T00:13:44;6.07;;;2.17;;
59585;SDS011;45408;52.686;7.310;2023-08-08T00:16:10;5.60;;;2.45;;
59585;SDS011;45408;52.686;7.310;2023-08-08T00:18:36;5.90;;;2.35;;
59585;SDS011;45408;52.686;7.310;2023-08-08T00:21:02;5.10;;;2.80;;
59585;SDS011;45408;52.686;7.310;2023-08-08T00:23:28;4.68;;;2.80;;
59585;SDS011;45408;52.686;7.310;2023-08-08T00:25:53;7.70;;;2.17;;
59585;SDS011;45408;52.686;7.310;2023-08-08T00:28:19;6.82;;;2.67;;
59585;SDS011;45408;52.686;7.310;2023-08-08T00:30:45;4.47;;;2.30;;
59585;SDS011;45408;52.686;7.310;2023-08-08T00:33:11;5.82;;;2.28;;
59585;SDS011;45408;52.686;7.310;2023-08-08T00:35:37;4.85;;;2.30;;
59585;SDS011;45408;52.686;7.310;2023-08-08T00:38:04;4.65;;;2.53;;
59585;SDS011;45408;52.686;7.310;2023-08-08T00:40:30;4.18;;;2.25;;
59585;SDS011;45408;52.686;7.310;2023-08-08T00:42:56;3.85;;;2.75;;
59585;SDS011;45408;52.686;7.310;2023-08-08T00:45:21;7.63;;;2.45;;
59585;SDS011;45408;52.686;7.310;2023-08-08T00:47:48;6.65;;;2.65;;
59585;SDS011;45408;52.686;7.310;2023-08-08T00:50:14;5.22;;;2.55;;
59585;SDS011;45408;52.686;7.310;2023-08-08T00:52:43;6.40;;;2.67;;
59585;SDS011;45408;52.686;7.310;2023-08-08T00:55:09;5.03;;;2.65;;
59585;SDS011;45408;52.686;7.310;2023-08-08T00:57:35;5.20;;;3.03;;
59585;SDS011;45408;52.686;7.310;2023-08-08T01:00:04;2.67;;;2.38;;
59585;SDS011;45408;52.686;7.310;2023-08-08T01:02:30;5.82;;;2.80;;
59585;SDS011;45408;52.686;7.310;2023-08-08T01:04:56;3.72;;;2.47;;
59585;SDS011;45408;52.686;7.310;2023-08-08T01:12:20;4.93;;;2.80;;
59585;SDS011;45408;52.686;7.310;2023-08-08T01:14:46;4.63;;;2.75;;
59585;SDS011;45408;52.686;7.310;2023-08-08T01:17:12;2.95;;;2.65;;
59585;SDS011;45408;52.686;7.310;2023-08-08T01:19:39;5.28;;;2.90;;
59585;SDS011;45408;52.686;7.310;2023-08-08T01:22:06;4.85;;;2.65;;
59585;SDS011;45408;52.686;7.310;2023-08-08T01:24:33;5.53;;;2.63;;
59585;SDS011;45408;52.686;7.310;2023-08-08T01:27:02;5.85;;;2.72;;
59585;SDS011;45408;52.686;7.310;2023-08-08T01:29:28;4.65;;;3.10;;
59585;SDS011;45408;52.686;7.310;2023-08-08T01:31:54;4.10;;;2.85;;
59585;SDS011;45408;52.686;7.310;2023-08-08T01:34:20;8.05;;;2.65;;
59585;SDS011;45408;52.686;7.310;2023-08-08T01:39:20;7.55;;;3.20;;
59585;SDS011;45408;52.686;7.310;2023-08-08T01:41:48;6.28;;;3.45;;
59585;SDS011;45408;52.686;7.310;2023-08-08T01:44:14;8.48;;;3.03;;
59585;SDS011;45408;52.686;7.310;2023-08-08T01:46:41;6.80;;;2.95;;
59585;SDS011;45408;52.686;7.310;2023-08-08T01:49:07;6.63;;;2.63;;
59585;SDS011;45408;52.686;7.310;2023-08-08T01:51:32;6.32;;;2.55;;
59585;SDS011;45408;52.686;7.310;2023-08-08T01:53:58;6.47;;;2.90;;
59585;SDS011;45408;52.686;7.310;2023-08-08T01:56:24;9.77;;;2.40;;
59585;SDS011;45408;52.686;7.310;2023-08-08T01:58:50;7.15;;;3.50;;
59585;SDS011;45408;52.686;7.310;2023-08-08T02:01:16;6.53;;;2.95;;
59585;SDS011;45408;52.686;7.310;2023-08-08T02:03:42;5.40;;;2.75;;
59585;SDS011;45408;52.686;7.310;2023-08-08T02:06:08;15.57;;;3.13;;
59585;SDS011;45408;52.686;7.310;2023-08-08T02:08:34;4.50;;;2.70;;
59585;SDS011;45408;52.686;7.310;2023-08-08T02:11:00;6.60;;;2.80;;
59585;SDS011;45408;52.686;7.310;2023-08-08T02:13:26;5.78;;;2.92;;
59585;SDS011;45408;52.686;7.310;2023-08-08T02:15:52;7.72;;;2.83;;
59585;SDS011;45408;52.686;7.310;2023-08-08T02:18:18;6.32;;;2.53;;
59585;SDS011;45408;52.686;7.310;2023-08-08T02:20:44;8.73;;;3.30;;
59585;SDS011;45408;52.686;7.310;2023-08-08T02:23:10;7.13;;;3.42;;
59585;SDS011;45408;52.686;7.310;2023-08-08T02:25:36;6.35;;;2.97;;
59585;SDS011;45408;52.686;7.310;2023-08-08T02:28:02;8.32;;;2.47;;
59585;SDS011;45408;52.686;7.310;2023-08-08T02:30:28;5.15;;;2.53;;
59585;SDS011;45408;52.686;7.310;2023-08-08T02:32:53;4.75;;;2.85;;
59585;SDS011;45408;52.686;7.310;2023-08-08T02:35:19;5.18;;;2.85;;
59585;SDS011;45408;52.686;7.310;2023-08-08T02:37:45;5.28;;;2.67;;
59585;SDS011;45408;52.686;7.310;2023-08-08T02:40:11;7.68;;;3.05;;
59585;SDS011;45408;52.686;7.310;2023-08-08T02:42:37;4.15;;;2.90;;
59585;SDS011;45408;52.686;7.310;2023-08-08T02:45:03;3.78;;;2.20;;
59585;SDS011;45408;52.686;7.310;2023-08-08T02:47:30;6.95;;;2.90;;
59585;SDS011;45408;52.686;7.310;2023-08-08T02:49:56;9.38;;;3.45;;
59585;SDS011;45408;52.686;7.310;2023-08-08T02:52:21;8.98;;;2.97;;
59585;SDS011;45408;52.686;7.310;2023-08-08T02:54:47;5.50;;;2.80;;
59585;SDS011;45408;52.686;7.310;2023-08-08T02:57:13;9.35;;;3.60;;
59585;SDS011;45408;52.686;7.310;2023-08-08T02:59:39;6.88;;;3.28;;
59585;SDS011;45408;52.686;7.310;2023-08-08T03:02:05;5.15;;;3.08;;
59585;SDS011;45408;52.686;7.310;2023-08-08T03:04:31;10.45;;;3.78;;
59585;SDS011;45408;52.686;7.310;2023-08-08T03:06:57;8.82;;;2.97;;
59585;SDS011;45408;52.686;7.310;2023-08-08T03:09:23;10.23;;;3.22;;
59585;SDS011;45408;52.686;7.310;2023-08-08T03:11:49;11.85;;;3.67;;
59585;SDS011;45408;52.686;7.310;2023-08-08T03:14:15;11.35;;;3.20;;
59585;SDS011;45408;52.686;7.310;2023-08-08T03:16:41;5.13;;;2.65;;
59585;SDS011;45408;52.686;7.310;2023-08-08T03:19:07;5.57;;;2.90;;
59585;SDS011;45408;52.686;7.310;2023-08-08T03:21:33;5.35;;;2.65;;
59585;SDS011;45408;52.686;7.310;2023-08-08T03:23:59;10.00;;;3.25;;
59585;SDS011;45408;52.686;7.310;2023-08-08T03:26:25;8.07;;;3.10;;
59585;SDS011;45408;52.686;7.310;2023-08-08T03:28:51;6.75;;;3.35;;
59585;SDS011;45408;52.686;7.310;2023-08-08T03:31:18;7.05;;;3.13;;
59585;SDS011;45408;52.686;7.310;2023-08-08T03:33:44;8.88;;;3.53;;
59585;SDS011;45408;52.686;7.310;2023-08-08T03:36:10;6.43;;;3.25;;
59585;SDS011;45408;52.686;7.310;2023-08-08T03:38:36;6.00;;;2.83;;
59585;SDS011;45408;52.686;7.310;2023-08-08T03:41:05;6.47;;;3.38;;
59585;SDS011;45408;52.686;7.310;2023-08-08T03:43:31;11.27;;;3.88;;
59585;SDS011;45408;52.686;7.310;2023-08-08T03:45:57;10.18;;;3.78;;
59585;SDS011;45408;52.686;7.310;2023-08-08T03:48:23;9.43;;;2.85;;
59585;SDS011;45408;52.686;7.310;2023-08-08T03:50:49;7.03;;;3.25;;
59585;SDS011;45408;52.686;7.310;2023-08-08T03:53:15;8.82;;;3.55;;
59585;SDS011;45408;52.686;7.310;2023-08-08T03:55:41;9.35;;;3.17;;
59585;SDS011;45408;52.686;7.310;2023-08-08T03:58:07;7.68;;;3.30;;
59585;SDS011;45408;52.686;7.310;2023-08-08T04:00:33;7.53;;;2.97;;
59585;SDS011;45408;52.686;7.310;2023-08-08T04:02:58;8.30;;;3.63;;
59585;SDS011;45408;52.686;7.310;2023-08-08T04:05:24;10.10;;;3.80;;
59585;SDS011;45408;52.686;7.310;2023-08-08T04:07:50;11.88;;;3.58;;
59585;SDS011;45408;52.686;7.310;2023-08-08T04:10:16;16.10;;;3.83;;
59585;SDS011;45408;52.686;7.310;2023-08-08T04:12:42;8.05;;;3.20;;
59585;SDS011;45408;52.686;7.310;2023-08-08T04:15:08;13.02;;;4.38;;
59585;SDS011;45408;52.686;7.310;2023-08-08T04:17:34;8.82;;;3.30;;
59585;SDS011;45408;52.686;7.310;2023-08-08T04:20:01;6.85;;;3.70;;
59585;SDS011;45408;52.686;7.310;2023-08-08T04:22:27;7.53;;;3.63;;
59585;SDS011;45408;52.686;7.310;2023-08-08T04:24:53;8.63;;;3.30;;
59585;SDS011;45408;52.686;7.310;2023-08-08T04:27:19;15.23;;;4.35;;
59585;SDS011;45408;52.686;7.310;2023-08-08T04:29:45;6.50;;;3.40;;
59585;SDS011;45408;52.686;7.310;2023-08-08T04:32:11;7.68;;;3.00;;
59585;SDS011;45408;52.686;7.310;2023-08-08T04:34:37;9.10;;;3.45;;
59585;SDS011;45408;52.686;7.310;2023-08-08T04:37:03;11.27;;;3.22;;
59585;SDS011;45408;52.686;7.310;2023-08-08T04:39:29;8.85;;;3.35;;
59585;SDS011;45408;52.686;7.310;2023-08-08T04:41:55;10.02;;;3.78;;
59585;SDS011;45408;52.686;7.310;2023-08-08T04:44:21;5.22;;;3.00;;
59585;SDS011;45408;52.686;7.310;2023-08-08T04:46:47;12.18;;;3.45;;
59585;SDS011;45408;52.686;7.310;2023-08-08T04:49:13;9.00;;;3.92;;
59585;SDS011;45408;52.686;7.310;2023-08-08T04:51:39;7.35;;;3.65;;
59585;SDS011;45408;52.686;7.310;2023-08-08T04:54:05;8.93;;;3.53;;
59585;SDS011;45408;52.686;7.310;2023-08-08T04:56:31;15.82;;;3.65;;
59585;SDS011;45408;52.686;7.310;2023-08-08T04:58:57;12.25;;;3.40;;
59585;SDS011;45408;52.686;7.310;2023-08-08T05:01:23;11.07;;;3.22;;
59585;SDS011;45408;52.686;7.310;2023-08-08T05:03:49;9.57;;;3.72;;
59585;SDS011;45408;52.686;7.310;2023-08-08T05:06:15;12.35;;;3.33;;
59585;SDS011;45408;52.686;7.310;2023-08-08T05:08:41;9.02;;;3.28;;
59585;SDS011;45408;52.686;7.310;2023-08-08T05:11:07;14.60;;;4.20;;
59585;SDS011;45408;52.686;7.310;2023-08-08T05:13:34;7.07;;;3.15;;
59585;SDS011;45408;52.686;7.310;2023-08-08T05:16:00;6.90;;;2.55;;
59585;SDS011;45408;52.686;7.310;2023-08-08T05:18:26;11.13;;;3.33;;
59585;SDS011;45408;52.686;7.310;2023-08-08T05:20:52;7.28;;;3.35;;
59585;SDS011;45408;52.686;7.310;2023-08-08T05:23:19;9.73;;;3.08;;
59585;SDS011;45408;52.686;7.310;2023-08-08T05:25:45;8.80;;;2.75;;
59585;SDS011;45408;52.686;7.310;2023-08-08T05:28:11;6.07;;;2.47;;
59585;SDS011;45408;52.686;7.310;2023-08-08T05:30:37;8.73;;;2.70;;
59585;SDS011;45408;52.686;7.310;2023-08-08T05:33:03;6.28;;;2.20;;
59585;SDS011;45408;52.686;7.310;2023-08-08T05:35:30;5.38;;;2.75;;
59585;SDS011;45408;52.686;7.310;2023-08-08T05:37:55;11.93;;;2.67;;
59585;SDS011;45408;52.686;7.310;2023-08-08T05:40:21;8.77;;;2.97;;
59585;SDS011;45408;52.686;7.310;2023-08-08T05:42:47;10.60;;;2.70;;
59585;SDS011;45408;52.686;7.310;2023-08-08T05:45:13;6.53;;;2.28;;
59585;SDS011;45408;52.686;7.310;2023-08-08T05:47:39;6.60;;;2.30;;
59585;SDS011;45408;52.686;7.310;2023-08-08T05:50:05;7.68;;;2.17;;
59585;SDS011;45408;52.686;7.310;2023-08-08T05:52:32;4.65;;;2.05;;
59585;SDS011;45408;52.686;7.310;2023-08-08T05:54:58;10.23;;;2.80;;
59585;SDS011;45408;52.686;7.310;2023-08-08T05:57:24;13.25;;;2.72;;
59585;SDS011;45408;52.686;7.310;2023-08-08T05:59:51;4.88;;;2.03;;
59585;SDS011;45408;52.686;7.310;2023-08-08T06:02:16;5.72;;;2.20;;
59585;SDS011;45408;52.686;7.310;2023-08-08T06:04:43;6.45;;;2.10;;
59585;SDS011;45408;52.686;7.310;2023-08-08T06:07:09;5.60;;;1.83;;
59585;SDS011;45408;52.686;7.310;2023-08-08T06:09:35;9.73;;;2.55;;
59585;SDS011;45408;52.686;7.310;2023-08-08T06:12:02;8.48;;;2.38;;
59585;SDS011;45408;52.686;7.310;2023-08-08T06:14:28;5.53;;;1.70;;
59585;SDS011;45408;52.686;7.310;2023-08-08T06:16:54;4.40;;;2.10;;
59585;SDS011;45408;52.686;7.310;2023-08-08T06:19:23;12.55;;;2.22;;
59585;SDS011;45408;52.686;7.310;2023-08-08T06:24:15;7.32;;;1.80;;
59585;SDS011;45408;52.686;7.310;2023-08-08T06:26:41;6.53;;;1.60;;
59585;SDS011;45408;52.686;7.310;2023-08-08T06:29:07;5.13;;;1.90;;
59585;SDS011;45408;52.686;7.310;2023-08-08T06:31:33;8.95;;;2.42;;
59585;SDS011;45408;52.686;7.310;2023-08-08T06:33:59;5.03;;;1.73;;
59585;SDS011;45408;52.686;7.310;2023-08-08T06:36:24;18.15;;;1.55;;
59585;SDS011;45408;52.686;7.310;2023-08-08T06:38:50;8.98;;;1.92;;
59585;SDS011;45408;52.686;7.310;2023-08-08T06:41:16;10.43;;;2.15;;
59585;SDS011;45408;52.686;7.310;2023-08-08T06:43:42;10.82;;;1.90;;
59585;SDS011;45408;52.686;7.310;2023-08-08T06:46:08;9.20;;;1.48;;
59585;SDS011;45408;52.686;7.310;2023-08-08T06:48:34;8.75;;;1.52;;
59585;SDS011;45408;52.686;7.310;2023-08-08T06:51:00;7.03;;;1.70;;
59585;SDS011;45408;52.686;7.310;2023-08-08T06:53:26;5.20;;;1.88;;
59585;SDS011;45408;52.686;7.310;2023-08-08T06:55:52;3.40;;;1.98;;
59585;SDS011;45408;52.686;7.310;2023-08-08T06:58:18;13.88;;;1.67;;
59585;SDS011;45408;52.686;7.310;2023-08-08T07:00:44;5.28;;;1.52;;
59585;SDS011;45408;52.686;7.310;2023-08-08T07:03:10;6.05;;;1.77;;
59585;SDS011;45408;52.686;7.310;2023-08-08T07:05:36;3.35;;;1.27;;
59585;SDS011;45408;52.686;7.310;2023-08-08T07:08:03;6.07;;;1.92;;
59585;SDS011;45408;52.686;7.310;2023-08-08T07:10:29;4.82;;;1.40;;
59585;SDS011;45408;52.686;7.310;2023-08-08T07:12:55;8.80;;;1.60;;
59585;SDS011;45408;52.686;7.310;2023-08-08T07:15:21;4.75;;;1.63;;
59585;SDS011;45408;52.686;7.310;2023-08-08T07:17:47;6.35;;;1.83;;
59585;SDS011;45408;52.686;7.310;2023-08-08T07:20:13;8.90;;;1.45;;
59585;SDS011;45408;52.686;7.310;2023-08-08T07:22:39;5.32;;;1.30;;
59585;SDS011;45408;52.686;7.310;2023-08-08T07:25:05;5.60;;;1.13;;
59585;SDS011;45408;52.686;7.310;2023-08-08T07:27:31;5.03;;;1.10;;
59585;SDS011;45408;52.686;7.310;2023-08-08T07:29:57;9.57;;;1.60;;
59585;SDS011;45408;52.686;7.310;2023-08-08T07:32:24;7.00;;;1.30;;
59585;SDS011;45408;52.686;7.310;2023-08-08T07:34:50;3.95;;;1.13;;
59585;SDS011;45408;52.686;7.310;2023-08-08T07:37:16;2.40;;;0.90;;
59585;SDS011;45408;52.686;7.310;2023-08-08T07:39:42;5.78;;;1.10;;
59585;SDS011;45408;52.686;7.310;2023-08-08T07:42:07;6.60;;;1.95;;
59585;SDS011;45408;52.686;7.310;2023-08-08T07:44:33;3.42;;;1.10;;
59585;SDS011;45408;52.686;7.310;2023-08-08T07:47:03;5.30;;;1.20;;
59585;SDS011;45408;52.686;7.310;2023-08-08T07:49:29;2.03;;;0.93;;
59585;SDS011;45408;52.686;7.310;2023-08-08T07:51:55;5.22;;;1.20;;
59585;SDS011;45408;52.686;7.310;2023-08-08T07:54:21;4.57;;;1.20;;
59585;SDS011;45408;52.686;7.310;2023-08-08T07:56:47;6.40;;;1.30;;
59585;SDS011;45408;52.686;7.310;2023-08-08T07:59:13;4.45;;;1.13;;
59585;SDS011;45408;52.686;7.310;2023-08-08T08:01:39;4.55;;;1.20;;
59585;SDS011;45408;52.686;7.310;2023-08-08T08:04:05;2.60;;;1.08;;
59585;SDS011;45408;52.686;7.310;2023-08-08T08:06:31;6.75;;;1.15;;
59585;SDS011;45408;52.686;7.310;2023-08-08T08:08:57;5.55;;;0.90;;
59585;SDS011;45408;52.686;7.310;2023-08-08T08:11:23;2.88;;;1.10;;
59585;SDS011;45408;52.686;7.310;2023-08-08T08:13:49;3.85;;;1.08;;
59585;SDS011;45408;52.686;7.310;2023-08-08T08:16:15;4.47;;;1.00;;
59585;SDS011;45408;52.686;7.310;2023-08-08T08:18:41;2.00;;;1.05;;
59585;SDS011;45408;52.686;7.310;2023-08-08T08:21:07;3.70;;;1.10;;
59585;SDS011;45408;52.686;7.310;2023-08-08T08:23:33;3.13;;;0.88;;
59585;SDS011;45408;52.686;7.310;2023-08-08T08:25:59;2.80;;;0.73;;
59585;SDS011;45408;52.686;7.310;2023-08-08T08:28:26;4.07;;;0.60;;
59585;SDS011;45408;52.686;7.310;2023-08-08T08:30:52;5.07;;;0.70;;
59585;SDS011;45408;52.686;7.310;2023-08-08T08:33:18;3.63;;;1.00;;
59585;SDS011;45408;52.686;7.310;2023-08-08T08:35:44;2.50;;;0.70;;
59585;SDS011;45408;52.686;7.310;2023-08-08T08:38:11;1.65;;;0.90;;
59585;SDS011;45408;52.686;7.310;2023-08-08T08:40:37;2.72;;;0.90;;
59585;SDS011;45408;52.686;7.310;2023-08-08T08:43:04;5.75;;;0.88;;
59585;SDS011;45408;52.686;7.310;2023-08-08T08:45:30;2.47;;;0.80;;
59585;SDS011;45408;52.686;7.310;2023-08-08T08:47:56;9.38;;;1.13;;
59585;SDS011;45408;52.686;7.310;2023-08-08T08:50:22;4.25;;;0.80;;
59585;SDS011;45408;52.686;7.310;2023-08-08T08:52:49;3.20;;;0.75;;
59585;SDS011;45408;52.686;7.310;2023-08-08T08:55:15;2.58;;;0.93;;
59585;SDS011;45408;52.686;7.310;2023-08-08T08:57:42;1.38;;;0.60;;
59585;SDS011;45408;52.686;7.310;2023-08-08T09:00:09;2.67;;;1.10;;
59585;SDS011;45408;52.686;7.310;2023-08-08T09:02:36;2.97;;;0.68;;
59585;SDS011;45408;52.686;7.310;2023-08-08T09:05:02;4.18;;;0.88;;
59585;SDS011;45408;52.686;7.310;2023-08-08T09:07:29;1.83;;;0.80;;
59585;SDS011;45408;52.686;7.310;2023-08-08T09:09:55;2.28;;;0.70;;
59585;SDS011;45408;52.686;7.310;2023-08-08T09:12:21;4.88;;;0.73;;
59585;SDS011;45408;52.686;7.310;2023-08-08T09:14:48;3.70;;;0.73;;
59585;SDS011;45408;52.686;7.310;2023-08-08T09:17:20;8.00;;;1.15;;
59585;SDS011;45408;52.686;7.310;2023-08-08T09:19:46;2.67;;;0.80;;
59585;SDS011;45408;52.686;7.310;2023-08-08T09:22:12;2.78;;;0.77;;
59585;SDS011;45408;52.686;7.310;2023-08-08T09:24:42;2.60;;;0.50;;
59585;SDS011;45408;52.686;7.310;2023-08-08T09:27:08;3.88;;;0.88;;
59585;SDS011;45408;52.686;7.310;2023-08-08T09:29:38;2.78;;;0.70;;
59585;SDS011;45408;52.686;7.310;2023-08-08T09:32:04;4.05;;;0.85;;
59585;SDS011;45408;52.686;7.310;2023-08-08T09:34:30;3.10;;;0.80;;
59585;SDS011;45408;52.686;7.310;2023-08-08T09:36:57;4.50;;;0.80;;
59585;SDS011;45408;52.686;7.310;2023-08-08T09:39:23;1.73;;;0.55;;
59585;SDS011;45408;52.686;7.310;2023-08-08T09:41:49;5.43;;;1.13;;
59585;SDS011;45408;52.686;7.310;2023-08-08T09:44:15;3.95;;;0.80;;
59585;SDS011;45408;52.686;7.310;2023-08-08T09:46:42;4.93;;;0.95;;
59585;SDS011;45408;52.686;7.310;2023-08-08T09:49:09;3.17;;;0.82;;
59585;SDS011;45408;52.686;7.310;2023-08-08T09:51:36;1.52;;;0.60;;
59585;SDS011;45408;52.686;7.310;2023-08-08T09:54:02;5.38;;;0.80;;
59585;SDS011;45408;52.686;7.310;2023-08-08T09:56:31;1.40;;;0.65;;
59585;SDS011;45408;52.686;7.310;2023-08-08T09:58:58;3.80;;;0.93;;
59585;SDS011;45408;52.686;7.310;2023-08-08T10:01:25;3.05;;;1.00;;
59585;SDS011;45408;52.686;7.310;2023-08-08T10:03:51;2.88;;;0.95;;
59585;SDS011;45408;52.686;7.310;2023-08-08T10:06:17;4.50;;;1.05;;
59585;SDS011;45408;52.686;7.310;2023-08-08T10:08:44;1.83;;;0.60;;
59585;SDS011;45408;52.686;7.310;2023-08-08T10:11:10;10.82;;;0.93;;
59585;SDS011;45408;52.686;7.310;2023-08-08T10:13:36;5.63;;;0.93;;
59585;SDS011;45408;52.686;7.310;2023-08-08T10:16:08;1.50;;;0.82;;
59585;SDS011;45408;52.686;7.310;2023-08-08T10:18:35;2.72;;;0.98;;
59585;SDS011;45408;52.686;7.310;2023-08-08T10:21:04;2.83;;;0.77;;
59585;SDS011;45408;52.686;7.310;2023-08-08T10:23:36;5.55;;;1.10;;
59585;SDS011;45408;52.686;7.310;2023-08-08T10:26:03;1.52;;;0.73;;
59585;SDS011;45408;52.686;7.310;2023-08-08T10:28:29;0.75;;;0.50;;
59585;SDS011;45408;52.686;7.310;2023-08-08T10:30:58;3.67;;;0.82;;
59585;SDS011;45408;52.686;7.310;2023-08-08T10:33:25;2.55;;;0.80;;
59585;SDS011;45408;52.686;7.310;2023-08-08T10:36:01;3.05;;;0.77;;
59585;SDS011;45408;52.686;7.310;2023-08-08T10:38:49;0.77;;;0.55;;
59585;SDS011;45408;52.686;7.310;2023-08-08T10:41:18;2.13;;;0.70;;
59585;SDS011;45408;52.686;7.310;2023-08-08T10:43:48;3.58;;;0.93;;
59585;SDS011;45408;52.686;7.310;2023-08-08T10:46:22;4.97;;;0.82;;
59585;SDS011;45408;52.686;7.310;2023-08-08T10:48:49;3.58;;;1.33;;
59585;SDS011;45408;52.686;7.310;2023-08-08T10:51:16;3.83;;;1.55;;
59585;SDS011;45408;52.686;7.310;2023-08-08T10:53:42;4.07;;;1.17;;
59585;SDS011;45408;52.686;7.310;2023-08-08T10:56:11;4.53;;;1.00;;
59585;SDS011;45408;52.686;7.310;2023-08-08T10:58:38;4.50;;;0.98;;
59585;SDS011;45408;52.686;7.310;2023-08-08T11:01:05;3.28;;;0.70;;
59585;SDS011;45408;52.686;7.310;2023-08-08T11:03:33;3.22;;;1.20;;
59585;SDS011;45408;52.686;7.310;2023-08-08T11:05:59;2.45;;;1.10;;
59585;SDS011;45408;52.686;7.310;2023-08-08T11:08:28;5.30;;;0.80;;
59585;SDS011;45408;52.686;7.310;2023-08-08T11:10:55;4.13;;;0.80;;
59585;SDS011;45408;52.686;7.310;2023-08-08T11:13:21;1.35;;;0.80;;
59585;SDS011;45408;52.686;7.310;2023-08-08T11:15:47;4.32;;;1.17;;
59585;SDS011;45408;52.686;7.310;2023-08-08T11:18:13;4.43;;;1.38;;
59585;SDS011;45408;52.686;7.310;2023-08-08T11:20:39;6.97;;;1.33;;
59585;SDS011;45408;52.686;7.310;2023-08-08T11:23:05;4.47;;;1.27;;
59585;SDS011;45408;52.686;7.310;2023-08-08T11:25:35;6.38;;;1.58;;
59585;SDS011;45408;52.686;7.310;2023-08-08T11:28:01;2.63;;;0.90;;
59585;SDS011;45408;52.686;7.310;2023-08-08T11:30:28;5.05;;;1.10;;
59585;SDS011;45408;52.686;7.310;2023-08-08T11:32:56;9.43;;;1.25;;
59585;SDS011;45408;52.686;7.310;2023-08-08T11:35:23;1.95;;;0.90;;
59585;SDS011;45408;52.686;7.310;2023-08-08T11:37:50;3.17;;;1.15;;
59585;SDS011;45408;52.686;7.310;2023-08-08T11:40:17;2.08;;;0.98;;
59585;SDS011;45408;52.686;7.310;2023-08-08T11:42:43;2.97;;;0.73;;
59585;SDS011;45408;52.686;7.310;2023-08-08T11:45:15;2.97;;;0.70;;
59585;SDS011;45408;52.686;7.310;2023-08-08T11:47:41;6.00;;;0.90;;
59585;SDS011;45408;52.686;7.310;2023-08-08T11:50:08;3.33;;;0.68;;
59585;SDS011;45408;52.686;7.310;2023-08-08T11:52:41;4.63;;;0.90;;
59585;SDS011;45408;52.686;7.310;2023-08-08T11:55:08;2.40;;;0.80;;
59585;SDS011;45408;52.686;7.310;2023-08-08T11:57:35;5.05;;;1.15;;
59585;SDS011;45408;52.686;7.310;2023-08-08T12:00:03;1.63;;;0.80;;
59585;SDS011;45408;52.686;7.310;2023-08-08T12:02:30;2.13;;;0.70;;
59585;SDS011;45408;52.686;7.310;2023-08-08T12:05:03;5.25;;;1.13;;
59585;SDS011;45408;52.686;7.310;2023-08-08T12:07:31;4.32;;;0.98;;
59585;SDS011;45408;52.686;7.310;2023-08-08T12:09:57;2.45;;;1.20;;
59585;SDS011;45408;52.686;7.310;2023-08-08T12:12:25;1.83;;;0.95;;
59585;SDS011;45408;52.686;7.310;2023-08-08T12:14:51;2.38;;;0.93;;
59585;SDS011;45408;52.686;7.310;2023-08-08T12:17:20;2.63;;;1.20;;
59585;SDS011;45408;52.686;7.310;2023-08-08T12:19:47;4.68;;;1.08;;
59585;SDS011;45408;52.686;7.310;2023-08-08T12:22:13;3.20;;;1.05;;
59585;SDS011;45408;52.686;7.310;2023-08-08T12:24:40;4.97;;;1.35;;
59585;SDS011;45408;52.686;7.310;2023-08-08T12:27:06;2.53;;;1.00;;
59585;SDS011;45408;52.686;7.310;2023-08-08T12:29:33;2.85;;;1.00;;
59585;SDS011;45408;52.686;7.310;2023-08-08T12:31:59;3.10;;;1.10;;
59585;SDS011;45408;52.686;7.310;2023-08-08T12:34:27;1.55;;;0.90;;
59585;SDS011;45408;52.686;7.310;2023-08-08T12:36:53;1.92;;;0.70;;
59585;SDS011;45408;52.686;7.310;2023-08-08T12:39:19;6.15;;;1.00;;
59585;SDS011;45408;52.686;7.310;2023-08-08T12:41:45;1.02;;;0.70;;
59585;SDS011;45408;52.686;7.310;2023-08-08T12:44:11;4.75;;;1.20;;
59585;SDS011;45408;52.686;7.310;2023-08-08T12:46:37;5.47;;;0.80;;
59585;SDS011;45408;52.686;7.310;2023-08-08T12:49:03;3.85;;;1.05;;
59585;SDS011;45408;52.686;7.310;2023-08-08T12:51:29;2.45;;;0.93;;
59585;SDS011;45408;52.686;7.310;2023-08-08T12:53:55;4.47;;;1.23;;
59585;SDS011;45408;52.686;7.310;2023-08-08T12:56:21;3.50;;;0.73;;
59585;SDS011;45408;52.686;7.310;2023-08-08T12:58:47;5.47;;;0.95;;
59585;SDS011;45408;52.686;7.310;2023-08-08T13:01:13;5.10;;;0.93;;
59585;SDS011;45408;52.686;7.310;2023-08-08T13:03:38;3.50;;;0.90;;
59585;SDS011;45408;52.686;7.310;2023-08-08T13:06:05;2.63;;;0.88;;
59585;SDS011;45408;52.686;7.310;2023-08-08T13:08:31;2.58;;;0.90;;
59585;SDS011;45408;52.686;7.310;2023-08-08T13:10:57;4.75;;;1.20;;
59585;SDS011;45408;52.686;7.310;2023-08-08T13:13:27;2.97;;;1.08;;
59585;SDS011;45408;52.686;7.310;2023-08-08T13:15:53;2.20;;;0.85;;
59585;SDS011;45408;52.686;7.310;2023-08-08T13:18:19;1.63;;;0.98;;
59585;SDS011;45408;52.686;7.310;2023-08-08T13:20:45;7.13;;;1.02;;
59585;SDS011;45408;52.686;7.310;2023-08-08T13:23:11;3.55;;;0.70;;
59585;SDS011;45408;52.686;7.310;2023-08-08T13:25:37;4.32;;;0.82;;
59585;SDS011;45408;52.686;7.310;2023-08-08T13:28:03;2.40;;;1.00;;
59585;SDS011;45408;52.686;7.310;2023-08-08T13:30:29;2.88;;;0.77;;
59585;SDS011;45408;52.686;7.310;2023-08-08T13:32:55;4.50;;;1.35;;
59585;SDS011;45408;52.686;7.310;2023-08-08T13:35:21;3.35;;;0.82;;
59585;SDS011;45408;52.686;7.310;2023-08-08T13:37:47;5.53;;;0.60;;
59585;SDS011;45408;52.686;7.310;2023-08-08T13:40:19;3.40;;;1.20;;
59585;SDS011;45408;52.686;7.310;2023-08-08T13:42:44;2.80;;;0.90;;
59585;SDS011;45408;52.686;7.310;2023-08-08T13:45:13;7.60;;;0.93;;
59585;SDS011;45408;52.686;7.310;2023-08-08T13:47:39;3.47;;;0.98;;
59585;SDS011;45408;52.686;7.310;2023-08-08T13:50:05;3.03;;;1.02;;
59585;SDS011;45408;52.686;7.310;2023-08-08T13:52:32;1.90;;;0.77;;
59585;SDS011;45408;52.686;7.310;2023-08-08T13:54:58;1.30;;;0.65;;
59585;SDS011;45408;52.686;7.310;2023-08-08T13:57:25;2.88;;;0.80;;
59585;SDS011;45408;52.686;7.310;2023-08-08T13:59:50;2.85;;;0.80;;
59585;SDS011;45408;52.686;7.310;2023-08-08T14:02:17;0.63;;;0.63;;
59585;SDS011;45408;52.686;7.310;2023-08-08T14:04:46;3.45;;;0.98;;
59585;SDS011;45408;52.686;7.310;2023-08-08T14:07:12;2.67;;;0.82;;
59585;SDS011;45408;52.686;7.310;2023-08-08T14:09:38;5.13;;;1.10;;
59585;SDS011;45408;52.686;7.310;2023-08-08T14:12:04;3.45;;;1.00;;
59585;SDS011;45408;52.686;7.310;2023-08-08T14:14:30;1.60;;;0.70;;
59585;SDS011;45408;52.686;7.310;2023-08-08T14:16:56;7.90;;;0.88;;
59585;SDS011;45408;52.686;7.310;2023-08-08T14:19:22;2.97;;;1.00;;
59585;SDS011;45408;52.686;7.310;2023-08-08T14:21:49;3.60;;;0.88;;
59585;SDS011;45408;52.686;7.310;2023-08-08T14:24:15;2.35;;;1.00;;
59585;SDS011;45408;52.686;7.310;2023-08-08T14:26:41;2.22;;;1.02;;
59585;SDS011;45408;52.686;7.310;2023-08-08T14:29:07;6.20;;;1.08;;
59585;SDS011;45408;52.686;7.310;2023-08-08T14:34:01;5.05;;;0.95;;
59585;SDS011;45408;52.686;7.310;2023-08-08T14:36:28;2.95;;;1.33;;
59585;SDS011;45408;52.686;7.310;2023-08-08T14:38:54;3.50;;;0.70;;
59585;SDS011;45408;52.686;7.310;2023-08-08T14:41:23;2.00;;;0.68;;
59585;SDS011;45408;52.686;7.310;2023-08-08T14:43:49;3.60;;;1.10;;
59585;SDS011;45408;52.686;7.310;2023-08-08T14:46:15;1.83;;;0.80;;
59585;SDS011;45408;52.686;7.310;2023-08-08T14:48:41;2.20;;;0.68;;
59585;SDS011;45408;52.686;7.310;2023-08-08T14:51:07;2.75;;;0.90;;
59585;SDS011;45408;52.686;7.310;2023-08-08T14:53:33;1.92;;;0.77;;